SARL/AOL METAR and TAF weather

Enter ICAO airport designator
Station Type Date Time Source
SARL METAR 2020/10/29 17:00 UTC NOAA

SARL 291700Z 16015KT 9999 FEW020 22/06 Q1018 RMK ESTIMATED WIND


Station Type Date Time Source
SARL Decoded METAR 2020/10/29 17:00 UTC NOAA

Paso De Los Libres Aerodrome, Argentina (SARL) 29-41S 057-09W 70M
Oct 29, 2020 - 01:00 PM EDT / 2020.10.29 1700 UTC
Wind: from the SSE (160 degrees) at 17 MPH (15 KT):0
Visibility: greater than 7 mile(s):0
Sky conditions: mostly clear
Temperature: 71 F (22 C)
Dew Point: 42 F (6 C)
Relative Humidity: 35%
Pressure (altimeter): 30.06 in. Hg (1018 hPa)
ob: SARL 291700Z 16015KT 9999 FEW020 22/06 Q1018 RMK ESTIMATED WIND
cycle: 17

Station Type Date Time Source
SARL TAF UTC NOAA

Error!

Example: see airport list